Time;durP1;ratioP1;P1;durP2;ratioP2;P2;SDS_P1;SDS_P2;PMS_P1;PMS_P2;Temp;Humidity;BMP_temperature;BMP_pressure;BME280_temperature;BME280_humidity;BME280_pressure;Samples;Min_cycle;Max_cycle;Signal;HPM_P1;HPM_P2
2023/12/18 00:01:01;;;;;;;7.70;6.15;;;;;;;19.63;39.31;103212.91;4618625;31;20062;-59
2023/12/18 00:03:32;;;;;;;7.72;6.18;;;;;;;19.61;39.51;103211.22;4641308;30;20066;-60
2023/12/18 00:05:59;;;;;;;7.32;6.35;;;;;;;19.58;39.39;103209.56;4628581;31;20063;-67
2023/12/18 00:08:27;;;;;;;8.82;6.88;;;;;;;19.55;39.51;103215.06;4626033;31;20446;-69
2023/12/18 00:10:54;;;;;;;8.20;6.68;;;;;;;19.55;39.55;103203.47;4628394;31;20051;-69
2023/12/18 00:13:22;;;;;;;9.88;7.03;;;;;;;19.52;39.46;103199.97;4621261;31;20509;-69
2023/12/18 00:15:49;;;;;;;7.72;6.93;;;;;;;19.52;39.84;103199.09;4626340;30;20067;-63
2023/12/18 00:18:16;;;;;;;10.93;6.45;;;;;;;19.51;39.75;103197.38;4637920;30;20060;-60
2023/12/18 00:20:44;;;;;;;7.75;6.22;;;;;;;19.49;39.87;103192.06;4628433;31;20409;-60
2023/12/18 00:23:11;;;;;;;7.75;6.32;;;;;;;19.48;39.80;103186.75;4612634;31;20052;-60
2023/12/18 00:25:39;;;;;;;7.72;6.57;;;;;;;19.45;40.10;103179.75;4619888;31;20069;-60
2023/12/18 00:28:06;;;;;;;8.63;7.30;;;;;;;19.47;40.27;103185.03;4626590;31;20435;-65
2023/12/18 00:30:33;;;;;;;9.65;6.90;;;;;;;19.47;40.30;103179.66;4628713;31;20059;-65
2023/12/18 00:33:02;;;;;;;8.52;6.68;;;;;;;19.45;40.23;103174.38;4628587;31;20067;-66
2023/12/18 00:35:29;;;;;;;9.15;6.80;;;;;;;19.45;40.26;103176.19;4628411;31;20059;-68
2023/12/18 00:37:57;;;;;;;6.25;5.63;;;;;;;19.43;40.11;103173.56;4626173;31;20067;-65
2023/12/18 00:40:24;;;;;;;7.00;5.93;;;;;;;19.42;40.33;103177.19;4627118;31;20059;-65
2023/12/18 00:42:52;;;;;;;8.07;6.57;;;;;;;19.42;40.32;103168.28;4628225;31;20067;-65
2023/12/18 00:45:19;;;;;;;8.77;6.20;;;;;;;19.42;40.33;103171.81;4628596;31;20059;-65
2023/12/18 00:47:46;;;;;;;8.40;6.45;;;;;;;19.40;40.35;103173.69;4625832;31;20056;-60
2023/12/18 00:50:14;;;;;;;7.80;5.85;;;;;;;19.38;40.21;103175.59;4628544;31;20051;-60
2023/12/18 00:52:41;;;;;;;9.55;6.43;;;;;;;19.37;40.16;103173.88;4624467;31;20060;-60
2023/12/18 00:55:09;;;;;;;8.68;6.55;;;;;;;19.37;40.15;103170.31;4625788;31;20424;-60
2023/12/18 00:57:36;;;;;;;8.82;6.40;;;;;;;19.36;39.96;103173.94;4625692;31;20060;-59
2023/12/18 01:00:04;;;;;;;7.05;5.75;;;;;;;19.35;40.22;103166.81;4628246;31;20497;-60
2023/12/18 01:02:32;;;;;;;9.63;5.93;;;;;;;19.34;40.29;103168.66;4628222;31;20075;-60
2023/12/18 01:04:59;;;;;;;6.97;5.63;;;;;;;19.33;40.22;103166.06;4627971;31;20094;-60
2023/12/18 01:07:29;;;;;;;6.47;5.18;;;;;;;19.33;40.20;103168.72;4625456;31;20055;-64
2023/12/18 01:10:00;;;;;;;8.07;5.80;;;;;;;19.33;40.24;103163.38;4630978;31;20059;-65
2023/12/18 01:12:27;;;;;;;6.63;5.43;;;;;;;19.32;40.40;103166.97;4628043;31;20059;-65
2023/12/18 01:14:55;;;;;;;6.28;5.22;;;;;;;19.31;40.32;103168.78;4631000;31;20055;-65
2023/12/18 01:17:22;;;;;;;6.35;5.35;;;;;;;19.32;40.13;103172.34;4628586;31;20048;-60
2023/12/18 01:20:03;;;;;;;7.20;5.28;;;;;;;19.31;40.24;103171.47;4630876;31;20070;-60
2023/12/18 01:22:31;;;;;;;6.53;5.40;;;;;;;19.30;40.18;103172.44;4631550;31;20055;-60
2023/12/18 01:24:58;;;;;;;8.02;5.78;;;;;;;19.28;40.19;103168.94;4607208;31;20075;-60
2023/12/18 01:27:25;;;;;;;6.28;5.18;;;;;;;19.27;40.13;103176.13;4629647;31;20086;-65
2023/12/18 01:29:53;;;;;;;6.95;5.45;;;;;;;19.28;40.03;103174.31;4631565;31;20519;-65
2023/12/18 01:32:20;;;;;;;7.63;5.72;;;;;;;19.28;40.08;103174.31;4630909;31;20055;-65
2023/12/18 01:34:48;;;;;;;5.95;4.82;;;;;;;19.29;40.19;103169.84;4628748;31;20079;-65
2023/12/18 01:37:15;;;;;;;7.03;5.28;;;;;;;19.29;40.05;103165.31;4630233;31;20083;-64
2023/12/18 01:39:43;;;;;;;6.22;5.15;;;;;;;19.27;40.13;103159.13;4630455;31;20090;-65
2023/12/18 01:42:11;;;;;;;6.45;5.68;;;;;;;19.27;40.02;103151.94;4630536;31;20056;-65
2023/12/18 01:44:38;;;;;;;7.13;4.63;;;;;;;19.27;40.20;103151.09;4629008;31;20067;-65
2023/12/18 01:47:07;;;;;;;7.47;5.13;;;;;;;19.28;40.16;103155.50;4630370;31;20063;-60
2023/12/18 01:49:35;;;;;;;5.13;4.28;;;;;;;19.29;40.07;103161.78;4630541;31;20062;-60
2023/12/18 01:52:04;;;;;;;7.43;4.70;;;;;;;19.27;40.25;103151.94;4630682;31;20055;-60
2023/12/18 01:54:32;;;;;;;7.05;4.88;;;;;;;19.27;40.13;103160.00;4628279;31;20078;-60
2023/12/18 01:57:02;;;;;;;5.72;4.50;;;;;;;19.27;39.96;103151.94;4630101;30;20052;-65
2023/12/18 01:59:32;;;;;;;6.10;5.03;;;;;;;19.27;40.17;103146.56;4630868;31;20047;-65
2023/12/18 02:01:59;;;;;;;5.90;4.70;;;;;;;19.27;39.94;103141.22;4630372;31;20062;-65
2023/12/18 02:04:27;;;;;;;5.88;4.65;;;;;;;19.26;40.22;103138.63;4627281;31;20428;-65
2023/12/18 02:06:56;;;;;;;6.05;4.50;;;;;;;19.26;40.09;103142.16;4610900;31;20051;-60
2023/12/18 02:09:23;;;;;;;5.10;4.32;;;;;;;19.26;40.15;103146.66;4630125;31;20519;-60
2023/12/18 02:11:51;;;;;;;5.07;4.18;;;;;;;19.25;40.30;103135.06;4630340;31;20066;-60
2023/12/18 02:14:18;;;;;;;5.78;4.07;;;;;;;19.26;40.17;103139.47;4626994;31;20056;-60
2023/12/18 02:16:45;;;;;;;5.30;4.38;;;;;;;19.25;40.24;103132.38;4630042;31;20054;-60
2023/12/18 02:19:27;;;;;;;5.63;4.10;;;;;;;19.26;40.32;103130.56;4629691;31;20059;-60
2023/12/18 02:21:56;;;;;;;4.57;4.05;;;;;;;19.24;40.27;103130.66;4628527;31;20527;-60
2023/12/18 02:24:24;;;;;;;5.55;4.20;;;;;;;19.25;40.28;103116.25;4624450;31;20060;-60
2023/12/18 02:26:53;;;;;;;6.03;4.05;;;;;;;19.25;40.26;103120.75;4613123;31;20046;-65
2023/12/18 02:29:20;;;;;;;6.30;4.47;;;;;;;19.23;40.29;103110.09;4629884;31;20512;-65
2023/12/18 02:31:47;;;;;;;6.13;4.53;;;;;;;19.25;40.36;103112.72;4628326;31;20507;-65
2023/12/18 02:34:15;;;;;;;5.95;4.30;;;;;;;19.24;40.28;103113.63;4628929;31;20060;-65
2023/12/18 02:36:42;;;;;;;5.57;4.00;;;;;;;19.24;40.13;103106.47;4629926;31;20047;-60
2023/12/18 02:39:10;;;;;;;5.97;4.38;;;;;;;19.24;40.09;103113.63;4630304;31;20063;-60
2023/12/18 02:41:37;;;;;;;4.55;3.58;;;;;;;19.23;40.30;103109.22;4628454;31;20059;-60
2023/12/18 02:44:05;;;;;;;5.93;4.07;;;;;;;19.23;40.21;103111.91;4627747;31;20066;-60
2023/12/18 02:46:32;;;;;;;5.28;3.30;;;;;;;19.22;40.13;103100.28;4629958;31;20063;-64
2023/12/18 02:48:59;;;;;;;6.05;4.60;;;;;;;19.22;40.11;103096.75;4629564;31;20067;-65
2023/12/18 02:51:27;;;;;;;6.40;4.13;;;;;;;19.22;40.19;103104.78;4628073;31;20500;-65
2023/12/18 02:53:54;;;;;;;4.57;3.50;;;;;;;19.23;40.01;103110.09;4628108;31;20060;-65
2023/12/18 02:56:23;;;;;;;5.22;4.15;;;;;;;19.21;40.19;103103.94;4629811;31;20055;-64
2023/12/18 02:58:50;;;;;;;5.20;3.72;;;;;;;19.21;40.08;103103.94;4630093;31;20067;-65
2023/12/18 03:01:18;;;;;;;5.80;3.70;;;;;;;19.21;40.03;103108.44;4628173;31;20059;-65
2023/12/18 03:03:45;;;;;;;4.60;3.25;;;;;;;19.21;40.12;103103.06;4628312;31;20059;-65
2023/12/18 03:06:13;;;;;;;4.57;3.30;;;;;;;19.21;39.94;103103.94;4629245;31;20059;-60
2023/12/18 03:08:41;;;;;;;4.45;3.28;;;;;;;19.20;39.99;103096.84;4629560;31;20051;-60
2023/12/18 03:11:09;;;;;;;5.38;3.83;;;;;;;19.20;39.98;103086.09;4625171;31;20071;-60
2023/12/18 03:13:37;;;;;;;5.07;3.38;;;;;;;19.20;39.88;103090.56;4627182;31;20059;-60
2023/12/18 03:16:04;;;;;;;5.22;3.30;;;;;;;19.20;39.80;103087.88;4629504;31;20073;-60
2023/12/18 03:18:32;;;;;;;4.13;3.22;;;;;;;19.21;39.98;103086.94;4629126;31;20104;-60
2023/12/18 03:20:59;;;;;;;4.57;3.83;;;;;;;19.21;39.85;103089.63;4627098;31;20067;-60
2023/12/18 03:23:26;;;;;;;4.35;3.60;;;;;;;19.19;39.86;103073.59;4627014;31;20071;-60
2023/12/18 03:25:54;;;;;;;7.63;3.50;;;;;;;19.20;39.82;103083.41;4617991;31;20067;-65
2023/12/18 03:28:21;;;;;;;5.22;3.60;;;;;;;19.21;39.79;103074.41;4619855;31;20420;-59
2023/12/18 03:30:49;;;;;;;5.07;3.90;;;;;;;19.21;39.72;103079.75;4627405;31;20059;-60
2023/12/18 03:33:16;;;;;;;5.30;3.63;;;;;;;19.21;39.91;103081.59;4626905;31;20067;-60
2023/12/18 03:35:44;;;;;;;5.50;3.67;;;;;;;19.20;39.81;103069.06;4628854;31;20150;-60
2023/12/18 03:38:14;;;;;;;5.30;3.45;;;;;;;19.20;39.46;103069.97;4629129;31;20056;-65
2023/12/18 03:40:42;;;;;;;4.88;3.13;;;;;;;19.19;39.63;103070.91;4626492;31;20515;-65
2023/12/18 03:43:09;;;;;;;5.38;3.65;;;;;;;19.20;39.77;103083.41;4628346;31;20055;-65
2023/12/18 03:45:36;;;;;;;4.07;2.92;;;;;;;19.19;39.69;103078.09;4629225;31;20055;-65
2023/12/18 03:48:04;;;;;;;6.03;3.33;;;;;;;19.20;39.68;103069.97;4628806;31;20051;-65
2023/12/18 03:50:32;;;;;;;4.47;3.42;;;;;;;19.19;39.81;103073.59;4626453;31;20062;-65
2023/12/18 03:52:59;;;;;;;5.10;3.58;;;;;;;19.19;39.79;103070.91;4628496;31;20086;-65
2023/12/18 03:55:28;;;;;;;4.15;3.30;;;;;;;19.18;39.67;103071.84;4629063;30;20520;-65
2023/12/18 03:57:55;;;;;;;5.40;3.58;;;;;;;19.18;39.68;103061.13;4628999;31;20063;-60
2023/12/18 04:00:22;;;;;;;4.78;3.30;;;;;;;19.18;39.83;103066.47;4626799;31;20070;-60
2023/12/18 04:02:50;;;;;;;5.10;3.40;;;;;;;19.19;39.73;103067.34;4628652;31;20070;-60
2023/12/18 04:05:17;;;;;;;4.57;3.65;;;;;;;19.18;39.76;103066.47;4628720;31;20062;-60
2023/12/18 04:07:45;;;;;;;4.35;3.20;;;;;;;19.18;39.87;103057.56;4628900;31;20399;-60
2023/12/18 04:10:13;;;;;;;4.22;3.05;;;;;;;19.18;39.67;103053.06;4626375;31;20047;-59
2023/12/18 04:12:40;;;;;;;5.25;3.17;;;;;;;19.18;39.69;103053.06;4619068;31;20066;-60
2023/12/18 04:15:09;;;;;;;4.25;3.20;;;;;;;19.17;39.50;103045.97;4628911;31;20424;-60
2023/12/18 04:17:36;;;;;;;4.80;3.38;;;;;;;19.16;39.75;103049.59;4623329;31;20083;-60
2023/12/18 04:20:04;;;;;;;5.35;3.13;;;;;;;19.17;39.84;103045.97;4627258;31;20063;-60
2023/12/18 04:22:32;;;;;;;3.47;2.70;;;;;;;19.16;39.74;103044.22;4628180;31;20058;-60
2023/12/18 04:24:59;;;;;;;3.50;2.88;;;;;;;19.16;39.67;103035.28;4628742;31;20393;-60
2023/12/18 04:27:27;;;;;;;4.45;3.40;;;;;;;19.16;39.67;103032.59;4610275;31;20048;-60
2023/12/18 04:29:54;;;;;;;4.30;3.08;;;;;;;19.16;39.62;103037.97;4625640;31;20060;-60
2023/12/18 04:32:22;;;;;;;5.53;3.05;;;;;;;19.16;39.72;103043.31;4628033;31;20059;-60
2023/12/18 04:34:49;;;;;;;3.55;2.65;;;;;;;19.15;39.76;103046.97;4628982;31;20066;-60
2023/12/18 04:37:17;;;;;;;5.30;3.10;;;;;;;19.14;39.64;103037.19;4628279;31;20051;-60
2023/12/18 04:39:44;;;;;;;4.70;3.17;;;;;;;19.14;39.64;103038.03;4625518;30;20064;-59
2023/12/18 04:42:12;;;;;;;5.10;3.47;;;;;;;19.14;39.65;103043.41;4628390;31;20051;-59
2023/12/18 04:44:39;;;;;;;4.25;3.10;;;;;;;19.13;39.55;103044.38;4631090;31;20070;-60
2023/12/18 04:47:09;;;;;;;4.25;3.03;;;;;;;19.14;39.75;103035.38;4631774;31;20066;-60
2023/12/18 04:49:36;;;;;;;4.43;3.10;;;;;;;19.13;39.52;103033.63;4629595;31;20491;-60
2023/12/18 04:52:04;;;;;;;4.80;3.25;;;;;;;19.13;39.38;103027.41;4631574;31;20051;-60
2023/12/18 04:54:31;;;;;;;4.72;2.72;;;;;;;19.12;39.40;103036.38;4631383;31;20066;-60
2023/12/18 04:56:59;;;;;;;3.65;2.58;;;;;;;19.12;39.53;103034.59;4632118;31;20059;-60
2023/12/18 04:59:26;;;;;;;3.92;2.75;;;;;;;19.13;39.57;103028.25;4628796;31;20048;-60
2023/12/18 05:01:54;;;;;;;4.05;2.90;;;;;;;19.14;39.68;103039.88;4631308;31;20055;-60
2023/12/18 05:04:21;;;;;;;3.92;2.78;;;;;;;19.13;39.50;103035.44;4631622;31;20074;-60
2023/12/18 05:06:49;;;;;;;4.13;2.70;;;;;;;19.12;39.42;103039.97;4631295;31;20056;-60
2023/12/18 05:09:17;;;;;;;3.38;2.42;;;;;;;19.13;39.33;103040.81;4628552;31;20052;-60
2023/12/18 05:11:44;;;;;;;5.35;3.40;;;;;;;19.13;39.36;103036.31;4629772;31;20066;-60
2023/12/18 05:14:12;;;;;;;3.15;2.65;;;;;;;19.13;39.45;103041.69;4631115;31;20059;-60
2023/12/18 05:16:39;;;;;;;3.90;2.70;;;;;;;19.13;39.26;103035.44;4631116;31;20507;-65
2023/12/18 05:19:06;;;;;;;5.10;2.88;;;;;;;19.13;39.44;103032.75;4628285;31;20063;-66
2023/12/18 05:21:34;;;;;;;4.07;2.50;;;;;;;19.13;39.54;103022.03;4631499;31;20055;-66
2023/12/18 05:24:01;;;;;;;3.50;2.42;;;;;;;19.14;39.58;103031.81;4631235;31;20428;-66
2023/12/18 05:26:29;;;;;;;4.68;3.05;;;;;;;19.15;39.89;103028.16;4631421;31;20063;-59
2023/12/18 05:28:56;;;;;;;4.38;2.40;;;;;;;19.15;39.68;103031.72;4606030;31;20060;-60
2023/12/18 05:31:23;;;;;;;3.35;2.10;;;;;;;19.15;39.71;103030.84;4630858;31;20530;-60
2023/12/18 05:33:51;;;;;;;4.53;2.70;;;;;;;19.16;39.77;103040.66;4630947;31;20511;-60
2023/12/18 05:36:19;;;;;;;4.95;2.92;;;;;;;19.16;39.78;103035.28;4631207;31;20064;-60
2023/12/18 05:38:46;;;;;;;4.32;2.50;;;;;;;19.16;39.79;103038.84;4627853;31;20056;-59
2023/12/18 05:41:14;;;;;;;3.63;2.30;;;;;;;19.16;39.97;103027.22;4630579;31;20066;-60
2023/12/18 05:43:41;;;;;;;3.80;2.55;;;;;;;19.16;39.76;103030.81;4631444;31;20062;-60
2023/12/18 05:46:14;;;;;;;4.28;2.50;;;;;;;19.16;39.86;103040.66;4630605;31;20060;-60
2023/12/18 05:48:42;;;;;;;4.47;2.40;;;;;;;19.16;39.95;103041.53;4625375;31;20052;-59
2023/12/18 05:51:22;;;;;;;3.47;2.63;;;;;;;19.15;39.88;103045.16;4630816;31;20062;-60
2023/12/18 05:53:49;;;;;;;3.45;2.50;;;;;;;19.15;39.99;103042.47;4630536;31;20055;-60
2023/12/18 05:56:17;;;;;;;3.20;2.20;;;;;;;19.15;40.07;103042.47;4628385;31;20059;-65
2023/12/18 05:58:45;;;;;;;3.10;2.30;;;;;;;19.14;40.07;103046.09;4628812;31;20062;-65
2023/12/18 06:01:12;;;;;;;3.88;2.30;;;;;;;19.14;39.97;103043.41;4630726;31;20063;-65
2023/12/18 06:03:40;;;;;;;3.80;2.70;;;;;;;19.14;40.15;103047.91;4630605;31;20401;-66
2023/12/18 06:06:08;;;;;;;3.72;2.35;;;;;;;19.13;40.05;103040.81;4641460;30;20063;-60
2023/12/18 06:08:35;;;;;;;4.57;2.60;;;;;;;19.12;39.84;103048.00;4629098;31;20071;-60
2023/12/18 06:11:03;;;;;;;5.40;2.40;;;;;;;19.13;39.81;103040.81;4625644;31;20066;-60
2023/12/18 06:13:31;;;;;;;4.30;2.58;;;;;;;19.13;39.86;103040.81;4627545;31;20052;-60
2023/12/18 06:16:00;;;;;;;3.67;2.80;;;;;;;19.12;39.87;103034.59;4628755;31;20066;-60
2023/12/18 06:18:27;;;;;;;3.63;2.20;;;;;;;19.12;39.98;103044.44;4628879;31;20044;-59
2023/12/18 06:20:55;;;;;;;3.33;2.22;;;;;;;19.11;39.93;103040.88;4630440;31;20066;-60
2023/12/18 06:23:22;;;;;;;4.30;2.42;;;;;;;19.11;39.77;103048.06;4630045;31;20062;-59
2023/12/18 06:25:50;;;;;;;3.53;1.98;;;;;;;19.10;39.70;103044.53;4628693;31;20063;-64
2023/12/18 06:28:17;;;;;;;3.45;2.10;;;;;;;19.10;39.65;103044.53;4627765;31;20048;-65
2023/12/18 06:30:45;;;;;;;4.85;2.38;;;;;;;19.11;39.78;103048.94;4610356;31;20052;-65
2023/12/18 06:33:12;;;;;;;4.13;2.20;;;;;;;19.10;39.60;103041.84;4630247;31;20055;-65
2023/12/18 06:35:41;;;;;;;3.85;2.22;;;;;;;19.10;39.68;103049.88;4628202;31;20055;-66
2023/12/18 06:38:08;;;;;;;3.50;2.40;;;;;;;19.11;39.63;103051.63;4628722;31;20489;-60
2023/12/18 06:40:35;;;;;;;3.65;2.10;;;;;;;19.12;39.68;103049.78;4630100;31;20561;-60
2023/12/18 06:43:03;;;;;;;4.22;2.50;;;;;;;19.12;39.50;103041.75;4629468;31;20090;-60
2023/12/18 06:45:30;;;;;;;2.95;2.00;;;;;;;19.12;39.67;103056.06;4627835;31;20059;-60
2023/12/18 06:47:58;;;;;;;4.93;2.88;;;;;;;19.11;39.78;103048.94;4629211;31;20429;-65
2023/12/18 06:50:25;;;;;;;3.15;2.15;;;;;;;19.10;39.78;103041.84;4629607;31;20051;-65
2023/12/18 06:52:53;;;;;;;3.50;2.47;;;;;;;19.11;39.58;103046.25;4629872;31;20059;-65
2023/12/18 06:55:21;;;;;;;3.30;2.45;;;;;;;19.11;39.67;103048.94;4622405;31;20051;-65
2023/12/18 06:57:48;;;;;;;2.90;2.20;;;;;;;19.11;39.67;103059.66;4641741;30;20402;-60
2023/12/18 07:00:16;;;;;;;3.97;2.30;;;;;;;19.11;39.51;103062.34;4629613;31;20404;-60
2023/12/18 07:02:43;;;;;;;3.95;2.63;;;;;;;19.11;39.72;103059.66;4629456;31;20055;-60
2023/12/18 07:05:13;;;;;;;4.05;2.20;;;;;;;19.11;39.62;103061.50;4627553;31;20051;-59
2023/12/18 07:07:40;;;;;;;3.75;2.65;;;;;;;19.11;39.69;103061.50;4628348;31;20054;-59
2023/12/18 07:10:08;;;;;;;3.40;2.20;;;;;;;19.11;39.59;103066.88;4629862;31;20047;-59
2023/12/18 07:12:35;;;;;;;3.83;2.45;;;;;;;19.10;39.72;103071.38;4628083;31;20508;-59
2023/12/18 07:15:03;;;;;;;4.13;2.45;;;;;;;19.10;39.70;103071.38;4627619;31;20055;-59
2023/12/18 07:17:30;;;;;;;3.53;2.30;;;;;;;19.10;39.66;103062.44;4628733;31;20426;-65
2023/12/18 07:19:58;;;;;;;3.80;2.58;;;;;;;19.10;39.69;103068.69;4629184;31;20419;-65
2023/12/18 07:22:25;;;;;;;3.28;1.90;;;;;;;19.09;39.79;103064.25;4628939;31;20066;-65
2023/12/18 07:24:52;;;;;;;3.22;2.03;;;;;;;19.10;39.64;103063.31;4627304;31;20066;-64
2023/12/18 07:27:20;;;;;;;3.42;1.85;;;;;;;19.10;39.86;103063.31;4628767;31;20067;-60
2023/12/18 07:29:48;;;;;;;3.75;2.53;;;;;;;19.09;39.90;103061.59;4621266;31;20048;-59
2023/12/18 07:32:15;;;;;;;3.58;2.20;;;;;;;19.09;39.71;103061.59;4597766;31;20064;-59
2023/12/18 07:34:43;;;;;;;4.05;2.47;;;;;;;19.10;39.60;103067.81;4618359;31;20064;-59
2023/12/18 07:37:10;;;;;;;3.80;2.17;;;;;;;19.10;39.70;103063.31;4618324;30;20080;-65
2023/12/18 07:39:38;;;;;;;5.30;2.70;;;;;;;19.12;39.79;103065.91;4617157;31;20060;-60
2023/12/18 07:42:05;;;;;;;3.50;2.33;;;;;;;19.12;39.88;103061.44;4629496;30;20055;-60
2023/12/18 07:44:33;;;;;;;3.95;2.25;;;;;;;19.13;40.00;103059.63;4619046;31;20066;-60
2023/12/18 07:47:00;;;;;;;4.72;2.50;;;;;;;19.12;39.87;103061.44;4607119;31;20059;-55
2023/12/18 07:49:27;;;;;;;4.40;2.20;;;;;;;19.12;39.76;103057.84;4618128;31;20052;-56
2023/12/18 07:51:55;;;;;;;3.95;2.25;;;;;;;19.12;39.69;103055.16;4618188;31;20524;-56
2023/12/18 07:54:23;;;;;;;6.03;2.92;;;;;;;19.12;39.71;103057.84;4619810;31;20051;-55
2023/12/18 07:56:50;;;;;;;5.75;2.60;;;;;;;19.11;39.69;103057.00;4618404;31;20063;-55
2023/12/18 07:59:19;;;;;;;4.63;2.53;;;;;;;19.11;39.79;103057.00;4616824;31;20063;-54
2023/12/18 08:01:47;;;;;;;3.80;2.50;;;;;;;19.11;39.56;103048.94;4616478;31;20074;-54
2023/12/18 08:04:14;;;;;;;3.67;2.58;;;;;;;19.10;39.59;103047.19;4619828;31;20085;-54
2023/12/18 08:06:42;;;;;;;4.97;2.50;;;;;;;19.12;39.66;103048.00;4615191;31;20060;-60
2023/12/18 08:09:09;;;;;;;7.03;2.72;;;;;;;19.15;39.91;103053.19;4621546;31;20504;-59
2023/12/18 08:11:38;;;;;;;3.05;2.10;;;;;;;19.16;39.83;103062.13;4619120;31;20406;-59
2023/12/18 08:14:10;;;;;;;6.25;2.47;;;;;;;19.18;39.69;103054.88;4620260;31;20059;-59
2023/12/18 08:16:37;;;;;;;4.05;2.53;;;;;;;19.19;39.91;103051.25;4607508;31;20060;-57
2023/12/18 08:19:05;;;;;;;4.70;2.63;;;;;;;19.20;39.90;103061.91;4619621;31;20440;-57
2023/12/18 08:21:32;;;;;;;3.90;2.58;;;;;;;19.22;39.89;103051.09;4620582;31;20067;-56
2023/12/18 08:24:00;;;;;;;4.88;2.45;;;;;;;19.23;39.70;103053.69;4617913;31;20131;-56
2023/12/18 08:26:27;;;;;;;4.43;2.83;;;;;;;19.24;39.65;103057.25;4621004;31;20059;-56
2023/12/18 08:28:56;;;;;;;3.72;2.58;;;;;;;19.25;39.63;103056.31;4621175;31;20424;-56
2023/12/18 08:31:23;;;;;;;4.25;2.65;;;;;;;19.26;39.77;103053.53;4621072;31;20497;-57
2023/12/18 08:33:51;;;;;;;4.07;2.70;;;;;;;19.27;39.34;103049.91;4623832;31;20055;-56
2023/12/18 08:36:18;;;;;;;6.22;3.20;;;;;;;19.29;39.49;103057.91;4611745;31;20056;-58
2023/12/18 08:38:46;;;;;;;4.53;3.00;;;;;;;19.29;39.41;103051.66;4621012;31;20056;-59
2023/12/18 08:41:13;;;;;;;4.95;2.80;;;;;;;19.30;39.42;103040.84;4619390;31;20056;-59
2023/12/18 08:43:43;;;;;;;4.30;2.80;;;;;;;19.31;39.30;103039.00;4623571;31;20051;-59
2023/12/18 08:46:15;;;;;;;4.32;2.78;;;;;;;19.31;39.15;103039.88;4611462;31;20064;-58
2023/12/18 08:48:42;;;;;;;4.32;2.58;;;;;;;19.32;39.32;103046.97;4620658;31;20539;-59
2023/12/18 08:51:10;;;;;;;4.40;2.67;;;;;;;19.33;39.25;103039.81;4620875;31;20052;-59
2023/12/18 08:53:37;;;;;;;6.97;3.30;;;;;;;19.33;39.08;103037.13;4623047;31;20066;-59
2023/12/18 08:56:05;;;;;;;6.55;3.38;;;;;;;19.34;39.22;103033.50;4620592;31;20086;-57
2023/12/18 08:58:32;;;;;;;4.82;3.00;;;;;;;19.34;39.03;103036.19;4620500;31;20063;-56
2023/12/18 09:01:00;;;;;;;4.13;2.47;;;;;;;19.35;39.26;103035.22;4620274;31;20044;-57
2023/12/18 09:03:29;;;;;;;3.60;2.53;;;;;;;19.34;39.00;103041.53;4622650;31;20065;-57
2023/12/18 09:05:58;;;;;;;3.70;2.53;;;;;;;19.34;39.13;103037.03;4620203;31;20063;-57
2023/12/18 09:08:25;;;;;;;4.60;2.42;;;;;;;19.35;39.17;103035.22;4620458;31;20064;-59
2023/12/18 09:10:53;;;;;;;5.07;3.30;;;;;;;19.34;39.26;103039.72;4620990;31;20401;-59
2023/12/18 09:13:20;;;;;;;4.38;2.88;;;;;;;19.36;39.33;103036.94;4621998;30;20056;-59
2023/12/18 09:15:48;;;;;;;3.80;2.42;;;;;;;19.37;39.47;103038.72;4620085;31;20052;-58
2023/12/18 09:18:16;;;;;;;4.80;2.80;;;;;;;19.38;39.15;103035.06;4620342;31;20089;-59
2023/12/18 09:20:44;;;;;;;5.47;2.88;;;;;;;19.39;39.20;103028.75;4620954;31;20493;-59
2023/12/18 09:23:12;;;;;;;4.63;2.50;;;;;;;19.40;39.57;103027.78;4622198;31;20488;-59
2023/12/18 09:25:39;;;;;;;4.28;2.80;;;;;;;19.40;39.73;103025.97;4617616;31;20056;-59
2023/12/18 09:28:06;;;;;;;4.57;2.55;;;;;;;19.41;39.52;103024.19;4617602;31;20063;-57
2023/12/18 09:30:33;;;;;;;6.82;3.22;;;;;;;19.41;39.51;103026.88;4620624;31;20052;-57
2023/12/18 09:33:01;;;;;;;4.93;2.70;;;;;;;19.41;39.50;103032.22;4621701;31;20059;-58
2023/12/18 09:35:29;;;;;;;4.97;2.90;;;;;;;19.41;39.61;103030.41;4616908;31;20059;-58
2023/12/18 09:37:56;;;;;;;4.78;2.67;;;;;;;19.42;39.45;103028.59;4619936;31;20085;-59
2023/12/18 09:40:24;;;;;;;4.90;2.95;;;;;;;19.40;39.36;103025.97;4620099;31;20066;-59
2023/12/18 09:42:53;;;;;;;3.97;2.92;;;;;;;19.42;39.31;103025.91;4621638;31;20071;-59
2023/12/18 09:45:25;;;;;;;4.15;3.10;;;;;;;19.42;39.31;103017.84;4619859;31;20064;-59
2023/12/18 09:47:53;;;;;;;3.97;2.72;;;;;;;19.41;39.22;103016.97;4617363;31;20071;-58
2023/12/18 09:50:21;;;;;;;3.45;2.47;;;;;;;19.42;39.18;103012.47;4621291;31;20059;-58
2023/12/18 09:53:01;;;;;;;4.93;3.15;;;;;;;19.41;39.28;103013.44;4621007;31;20059;-58
2023/12/18 09:55:31;;;;;;;5.18;3.25;;;;;;;19.41;39.22;103011.59;4632319;30;20079;-58
2023/12/18 09:58:00;;;;;;;4.50;3.15;;;;;;;19.42;39.23;103028.59;4619558;31;20539;-58
2023/12/18 10:00:27;;;;;;;5.15;3.45;;;;;;;19.41;39.17;103008.94;4619643;31;20059;-58
2023/12/18 10:02:57;;;;;;;3.95;3.17;;;;;;;19.42;39.14;103009.78;4619487;31;20071;-58
2023/12/18 10:05:25;;;;;;;4.78;2.92;;;;;;;19.42;39.33;103004.41;4619288;31;20062;-58
2023/12/18 10:07:54;;;;;;;6.80;3.20;;;;;;;19.43;39.26;103008.84;4619681;31;20051;-59
2023/12/18 10:10:21;;;;;;;4.05;2.58;;;;;;;19.42;39.38;103004.41;4621333;31;20073;-59
2023/12/18 10:12:49;;;;;;;5.90;2.85;;;;;;;19.43;39.26;103001.63;4619305;31;20060;-59
2023/12/18 10:15:16;;;;;;;4.07;2.83;;;;;;;19.43;39.17;103006.16;4619376;31;20212;-59
2023/12/18 10:17:45;;;;;;;4.55;2.70;;;;;;;19.43;39.47;103003.47;4619947;31;20055;-58
2023/12/18 10:20:14;;;;;;;5.30;2.90;;;;;;;19.43;39.42;102998.09;4621091;31;20043;-58
2023/12/18 10:22:43;;;;;;;5.07;2.95;;;;;;;19.43;39.14;102998.09;4619804;30;20059;-58
2023/12/18 10:25:12;;;;;;;5.00;3.17;;;;;;;19.43;39.10;102995.41;4619341;31;20063;-58
2023/12/18 10:27:39;;;;;;;5.55;3.10;;;;;;;19.43;38.89;102984.66;4620256;31;20428;-59
2023/12/18 10:30:08;;;;;;;10.00;3.13;;;;;;;19.42;39.16;102991.84;4620270;31;20078;-59
2023/12/18 10:32:36;;;;;;;4.45;2.83;;;;;;;19.42;39.21;102983.78;4619147;31;20055;-59
2023/12/18 10:35:05;;;;;;;4.85;3.25;;;;;;;19.44;39.03;102981.00;4618751;31;20071;-59
2023/12/18 10:37:35;;;;;;;5.15;2.95;;;;;;;19.43;38.90;102981.97;4618349;31;20060;-59
2023/12/18 10:40:09;;;;;;;5.25;3.40;;;;;;;19.42;38.83;102981.09;4619447;31;20432;-59
2023/12/18 10:42:37;;;;;;;5.30;3.25;;;;;;;19.42;39.11;102977.56;4615615;31;20413;-59
2023/12/18 10:45:08;;;;;;;5.07;3.28;;;;;;;19.42;38.94;102977.56;4619027;31;20056;-59
2023/12/18 10:47:36;;;;;;;6.18;3.05;;;;;;;19.42;38.95;102973.06;4621786;31;20052;-58
2023/12/18 10:50:05;;;;;;;7.22;3.65;;;;;;;19.43;38.96;102971.22;4618908;31;20051;-58
2023/12/18 10:52:33;;;;;;;5.90;3.10;;;;;;;19.42;39.03;102965.00;4618560;31;20056;-58
2023/12/18 10:55:05;;;;;;;5.70;3.25;;;;;;;19.43;38.89;102971.22;4618334;31;20055;-57
2023/12/18 10:57:33;;;;;;;4.35;2.90;;;;;;;19.42;39.61;102962.31;4616224;31;20062;-59
2023/12/18 11:00:02;;;;;;;5.97;3.50;;;;;;;19.41;39.18;102954.34;4618493;31;20170;-59
2023/12/18 11:02:31;;;;;;;3.45;2.40;;;;;;;19.40;39.76;102953.44;4618413;31;20507;-59
2023/12/18 11:04:59;;;;;;;4.57;2.90;;;;;;;19.40;39.89;102955.25;4618990;31;20082;-59
2023/12/18 11:07:28;;;;;;;6.40;3.65;;;;;;;19.39;40.54;102956.22;4619779;31;20075;-58
2023/12/18 11:09:56;;;;;;;5.10;3.70;;;;;;;19.37;40.26;102948.25;4617931;31;20059;-58
2023/12/18 11:12:26;;;;;;;7.38;4.45;;;;;;;19.37;40.36;102950.06;4618486;31;20054;-57
2023/12/18 11:15:20;;;;;;;6.85;3.67;;;;;;;19.35;40.38;102942.06;4617110;31;20059;-58
2023/12/18 11:17:55;;;;;;;7.50;4.45;;;;;;;19.35;40.69;102944.75;4595874;31;20063;-59
2023/12/18 11:20:33;;;;;;;5.65;4.07;;;;;;;19.33;40.98;102938.63;4616240;31;20528;-59
2023/12/18 11:23:03;;;;;;;7.40;4.50;;;;;;;19.33;40.98;102935.94;4615429;31;20055;-58
2023/12/18 11:25:35;;;;;;;7.22;5.38;;;;;;;19.28;40.09;102932.59;4615186;31;20074;-57
2023/12/18 11:28:04;;;;;;;8.98;6.55;;;;;;;19.19;39.28;102925.91;4618213;31;20068;-49